createdAt,value
2019-01-09T00:02:19.078Z,99033.00
2019-01-09T00:04:49.524Z,99024.36
2019-01-09T00:07:19.989Z,99034.79
2019-01-09T00:09:50.438Z,99035.28
2019-01-09T00:12:20.942Z,99038.15
2019-01-09T00:14:51.690Z,99036.97
2019-01-09T00:17:22.712Z,99030.14
2019-01-09T00:19:53.183Z,99039.72
2019-01-09T00:22:23.912Z,99038.23
2019-01-09T00:24:54.701Z,99040.05
2019-01-09T00:27:25.301Z,99039.70
2019-01-09T00:29:55.740Z,99038.66
2019-01-09T00:32:26.498Z,99034.58
2019-01-09T00:34:57.235Z,99041.63
2019-01-09T00:37:27.716Z,99049.91
2019-01-09T00:39:58.453Z,99041.37
2019-01-09T00:42:28.903Z,99044.89
2019-01-09T00:44:59.368Z,99051.09
2019-01-09T00:47:29.833Z,99048.50
2019-01-09T00:50:00.312Z,99053.73
2019-01-09T00:52:30.743Z,99048.58
2019-01-09T00:55:01.467Z,99056.51
2019-01-09T00:57:31.923Z,99051.66
2019-01-09T01:00:02.371Z,99054.66
2019-01-09T01:03:13.922Z,99055.27
2019-01-09T01:06:31.293Z,99053.59
2019-01-09T01:09:47.235Z,99063.25
2019-01-09T01:13:00.205Z,99071.03
2019-01-09T01:16:16.326Z,99076.38
2019-01-09T01:19:33.855Z,99071.09
2019-01-09T01:22:30.932Z,99076.04
2019-01-09T01:25:56.214Z,99090.27
2019-01-09T01:29:16.402Z,99085.20
2019-01-09T01:32:26.438Z,99083.71
2019-01-09T01:35:54.714Z,99089.30
2019-01-09T01:39:00.050Z,99101.33
2019-01-09T01:42:03.565Z,99102.56
2019-01-09T01:44:52.417Z,99100.28
2019-01-09T01:47:54.439Z,99106.02
2019-01-09T01:51:06.775Z,99115.13
2019-01-09T01:53:55.084Z,99113.38
2019-01-09T01:56:54.652Z,99133.19
2019-01-09T01:59:50.428Z,99131.05
2019-01-09T02:02:55.943Z,99134.29
2019-01-09T02:06:04.537Z,99139.11
2019-01-09T02:09:23.400Z,99144.56
2019-01-09T02:12:18.984Z,99148.52
2019-01-09T02:15:39.067Z,99140.75
2019-01-09T02:18:19.004Z,99149.31
2019-01-09T02:21:27.562Z,99147.80
2019-01-09T02:24:49.980Z,99162.34
2019-01-09T02:27:56.663Z,99171.70
2019-01-09T02:31:12.792Z,99171.70
2019-01-09T02:33:43.484Z,99169.06
2019-01-09T02:36:14.494Z,99187.88
2019-01-09T02:38:44.944Z,99179.49
2019-01-09T02:41:15.675Z,99181.41
2019-01-09T02:43:46.454Z,99192.92
2019-01-09T02:46:16.905Z,99188.53
2019-01-09T02:48:48.680Z,99190.20
2019-01-09T02:51:19.276Z,99193.16
2019-01-09T02:53:50.002Z,99188.52
2019-01-09T02:56:20.764Z,99199.08
2019-01-09T02:58:51.211Z,99197.89
2019-01-09T03:01:21.924Z,99198.99
2019-01-09T03:03:52.383Z,99206.91
2019-01-09T03:06:23.507Z,99206.80
2019-01-09T03:08:54.265Z,99207.78
2019-01-09T03:11:24.720Z,99212.08
2019-01-09T03:13:55.154Z,99221.95
2019-01-09T03:16:25.614Z,99212.48
2019-01-09T03:18:56.346Z,99210.84
2019-01-09T03:21:26.822Z,99201.23
2019-01-09T03:23:57.264Z,99213.20
2019-01-09T03:26:27.699Z,99211.25
2019-01-09T03:28:58.158Z,99210.29
2019-01-09T03:31:28.598Z,99219.44
2019-01-09T03:33:59.373Z,99216.16
2019-01-09T03:36:32.989Z,99214.72
2019-01-09T03:39:01.935Z,99208.52
2019-01-09T03:41:32.400Z,99214.02
2019-01-09T03:44:02.831Z,99212.80
2019-01-09T03:46:33.927Z,99209.80
2019-01-09T03:49:04.354Z,99211.97
2019-01-09T03:51:34.786Z,99223.23
2019-01-09T03:54:05.240Z,99222.53
2019-01-09T03:56:35.956Z,99219.17
2019-01-09T03:59:06.433Z,99217.75
2019-01-09T04:01:36.860Z,99229.38
2019-01-09T04:04:07.300Z,99232.55
2019-01-09T04:06:41.995Z,99238.87
2019-01-09T04:09:10.486Z,99230.00
2019-01-09T04:11:41.714Z,99234.92
2019-01-09T04:14:12.446Z,99237.20
2019-01-09T04:16:43.252Z,99224.16
2019-01-09T04:19:13.699Z,99243.70
2019-01-09T04:21:44.141Z,99235.48
2019-01-09T04:24:14.621Z,99239.67
2019-01-09T04:26:45.799Z,99236.91
2019-01-09T04:29:16.396Z,99241.22
2019-01-09T04:31:46.866Z,99241.95
2019-01-09T04:34:17.307Z,99245.61
2019-01-09T04:36:51.699Z,99242.88
2019-01-09T04:39:20.230Z,99248.88
2019-01-09T04:41:50.728Z,99248.16
2019-01-09T04:44:21.485Z,99241.72
2019-01-09T04:46:52.216Z,99239.91
2019-01-09T04:49:22.724Z,99255.74
2019-01-09T04:51:53.152Z,99250.92
2019-01-09T04:54:23.585Z,99250.80
2019-01-09T04:56:55.219Z,99246.84
2019-01-09T04:59:26.804Z,99256.23
2019-01-09T05:01:57.741Z,99253.36
2019-01-09T05:04:29.055Z,99257.69
2019-01-09T05:07:00.688Z,99255.41
2019-01-09T05:09:31.996Z,99253.72
2019-01-09T05:12:02.728Z,99253.95
2019-01-09T05:14:33.191Z,99257.45
2019-01-09T05:17:04.451Z,99264.28
2019-01-09T05:19:35.189Z,99267.16
2019-01-09T05:22:05.950Z,99276.78
2019-01-09T05:24:36.974Z,99267.28
2019-01-09T05:27:07.808Z,99272.33
2019-01-09T05:29:38.239Z,99271.34
2019-01-09T05:32:08.719Z,99265.03
2019-01-09T05:34:39.155Z,99257.94
2019-01-09T05:37:09.972Z,99271.48
2019-01-09T05:39:40.414Z,99284.31
2019-01-09T05:42:10.934Z,99281.44
2019-01-09T05:44:41.405Z,99289.72
2019-01-09T05:47:12.499Z,99292.36
2019-01-09T05:49:42.964Z,99292.47
2019-01-09T05:52:13.436Z,99286.85
2019-01-09T05:54:43.867Z,99287.94
2019-01-09T05:57:14.512Z,99291.53
2019-01-09T05:59:44.941Z,99297.77
2019-01-09T06:02:15.376Z,99291.03
2019-01-09T06:04:45.911Z,99295.13
2019-01-09T06:07:18.555Z,99291.87
2019-01-09T06:09:49.126Z,99294.52
2019-01-09T06:12:19.560Z,99288.50
2019-01-09T06:14:50.285Z,99300.05
2019-01-09T06:17:20.740Z,99291.87
2019-01-09T06:19:51.185Z,99295.20
2019-01-09T06:22:21.962Z,99298.83
2019-01-09T06:24:52.845Z,99300.28
2019-01-09T06:27:23.572Z,99314.33
2019-01-09T06:29:54.036Z,99307.59
2019-01-09T06:32:24.472Z,99306.18
2019-01-09T06:34:55.232Z,99325.97
2019-01-09T06:37:27.704Z,99299.09
2019-01-09T06:39:58.071Z,99314.33
2019-01-09T06:42:28.827Z,99310.47
2019-01-09T06:44:59.268Z,99311.45
2019-01-09T06:47:30.027Z,99326.30
2019-01-09T06:50:00.485Z,99322.25
2019-01-09T06:52:30.959Z,99324.03
2019-01-09T06:55:01.447Z,99316.73
2019-01-09T06:57:32.220Z,99329.20
2019-01-09T07:00:02.768Z,99339.06
2019-01-09T07:02:33.479Z,99332.09
2019-01-09T07:05:03.916Z,99343.13
2019-01-09T07:07:36.162Z,99350.06
2019-01-09T07:10:06.778Z,99353.91
2019-01-09T07:12:37.699Z,99355.00
2019-01-09T07:15:11.583Z,99354.77
2019-01-09T07:17:40.470Z,99355.23
2019-01-09T07:20:10.926Z,99359.55
2019-01-09T07:22:41.651Z,99363.14
2019-01-09T07:25:12.584Z,99367.00
2019-01-09T07:27:43.095Z,99372.64
2019-01-09T07:30:13.523Z,99362.94
2019-01-09T07:32:44.266Z,99374.08
2019-01-09T07:35:14.704Z,99369.16
2019-01-09T07:37:45.637Z,99376.72
2019-01-09T07:40:16.377Z,99357.06
2019-01-09T07:42:46.812Z,99375.30
2019-01-09T07:45:17.379Z,99379.59
2019-01-09T07:47:47.820Z,99375.39
2019-01-09T07:50:18.323Z,99375.64
2019-01-09T07:52:48.760Z,99378.88
2019-01-09T07:55:19.192Z,99379.71
2019-01-09T07:57:50.296Z,99376.12
2019-01-09T08:00:20.732Z,99379.34
2019-01-09T08:02:51.411Z,99385.95
2019-01-09T08:05:21.839Z,99387.88
2019-01-09T08:07:54.172Z,99393.27
2019-01-09T08:10:24.444Z,99401.08
2019-01-09T08:12:54.875Z,99399.87
2019-01-09T08:15:25.661Z,99410.07
2019-01-09T08:17:56.100Z,99415.71
2019-01-09T08:20:26.532Z,99413.42
2019-01-09T08:22:56.992Z,99421.20
2019-01-09T08:25:27.721Z,99417.01
2019-01-09T08:27:58.215Z,99420.50
2019-01-09T08:30:28.655Z,99430.69
2019-01-09T08:32:59.384Z,99432.84
2019-01-09T08:35:29.851Z,99432.13
2019-01-09T08:38:02.859Z,99442.22
2019-01-09T08:40:32.785Z,99446.52
2019-01-09T08:43:03.398Z,99446.77
2019-01-09T08:45:34.129Z,99456.48
2019-01-09T08:48:05.569Z,99457.20
2019-01-09T08:50:36.053Z,99460.56
2019-01-09T08:53:06.530Z,99457.80
2019-01-09T08:55:37.228Z,99460.57
2019-01-09T08:58:07.980Z,99460.69
2019-01-09T09:00:38.733Z,99464.98
2019-01-09T09:03:09.545Z,99472.91
2019-01-09T09:05:40.026Z,99482.51
2019-01-09T09:08:12.295Z,99474.59
2019-01-09T09:10:43.329Z,99478.30
2019-01-09T09:13:46.056Z,99485.02
2019-01-09T09:16:16.792Z,99480.11
2019-01-09T09:18:48.644Z,99478.30
2019-01-09T09:21:19.087Z,99494.29
2019-01-09T09:23:49.595Z,99496.31
2019-01-09T09:26:20.057Z,99501.71
2019-01-09T09:28:50.555Z,99501.22
2019-01-09T09:31:21.398Z,99506.28
2019-01-09T09:33:51.836Z,99516.34
2019-01-09T09:36:22.560Z,99519.48
2019-01-09T09:38:53.031Z,99514.08
2019-01-09T09:41:23.471Z,99516.22
2019-01-09T09:43:53.940Z,99528.59
2019-01-09T09:46:24.390Z,99526.57
2019-01-09T09:48:54.920Z,99528.22
2019-01-09T09:51:25.406Z,99530.74
2019-01-09T09:53:55.832Z,99538.91
2019-01-09T09:56:26.308Z,99540.22
2019-01-09T09:58:56.735Z,99546.58
2019-01-09T10:01:27.168Z,99551.98
2019-01-09T10:03:57.631Z,99560.14
2019-01-09T10:06:28.072Z,99550.66
2019-01-09T10:08:58.929Z,99546.12
2019-01-09T10:11:29.370Z,99552.34
2019-01-09T10:13:59.802Z,99561.83
2019-01-09T10:16:30.549Z,99554.28
2019-01-09T10:19:00.988Z,99558.48
2019-01-09T10:21:31.763Z,99559.44
2019-01-09T10:24:02.575Z,99566.53
2019-01-09T10:26:33.004Z,99561.62
2019-01-09T10:29:03.466Z,99569.05
2019-01-09T10:31:33.916Z,99568.33
2019-01-09T10:34:04.384Z,99569.20
2019-01-09T10:36:35.486Z,99581.17
2019-01-09T10:39:09.540Z,99573.73
2019-01-09T10:41:39.966Z,99581.53
2019-01-09T10:44:18.616Z,99578.77
2019-01-09T10:46:42.557Z,99577.70
2019-01-09T10:49:12.994Z,99580.80
2019-01-09T10:51:43.788Z,99583.56
2019-01-09T10:54:14.223Z,99577.21
2019-01-09T10:56:44.658Z,99573.49
2019-01-09T10:59:15.122Z,99576.38
2019-01-09T11:01:45.553Z,99584.88
2019-01-09T11:04:16.040Z,99584.67
2019-01-09T11:06:46.471Z,99591.48
2019-01-09T11:09:17.273Z,99589.95
2019-01-09T11:11:47.730Z,99588.51
2019-01-09T11:14:18.166Z,99589.58
2019-01-09T11:16:48.636Z,99589.58
2019-01-09T11:19:19.072Z,99585.98
2019-01-09T11:21:49.790Z,99588.51
2019-01-09T11:24:20.555Z,99589.83
2019-01-09T11:26:51.252Z,99592.34
2019-01-09T11:29:22.392Z,99590.87
2019-01-09T11:31:52.828Z,99594.83
2019-01-09T11:34:23.255Z,99587.65
2019-01-09T11:36:53.712Z,99585.71
2019-01-09T11:39:24.149Z,99591.23
2019-01-09T11:41:54.612Z,99599.28
2019-01-09T11:44:25.037Z,99591.15
2019-01-09T11:46:55.511Z,99599.77
2019-01-09T11:49:25.985Z,99594.49
2019-01-09T11:51:56.481Z,99596.31
2019-01-09T11:54:27.438Z,99601.34
2019-01-09T11:56:57.841Z,99600.84
2019-01-09T11:59:28.326Z,99609.27
2019-01-09T12:01:58.752Z,99605.42
2019-01-09T12:04:29.341Z,99601.09
2019-01-09T12:06:59.795Z,99610.45
2019-01-09T12:09:30.520Z,99604.93
2019-01-09T12:12:01.369Z,99613.93
2019-01-09T12:14:32.185Z,99609.63
2019-01-09T12:17:02.607Z,99616.81
2019-01-09T12:19:33.069Z,99615.25
2019-01-09T12:22:03.517Z,99616.20
2019-01-09T12:24:37.128Z,99622.09
2019-01-09T12:27:07.566Z,99629.55
2019-01-09T12:29:37.998Z,99630.63
2019-01-09T12:32:08.461Z,99630.27
2019-01-09T12:34:38.892Z,99629.92
2019-01-09T12:37:09.665Z,99634.38
2019-01-09T12:39:40.100Z,99633.06
2019-01-09T12:42:10.697Z,99636.78
2019-01-09T12:44:41.448Z,99646.97
2019-01-09T12:47:11.881Z,99641.11
2019-01-09T12:49:42.540Z,99643.75
2019-01-09T12:52:12.976Z,99639.05
2019-01-09T12:54:44.081Z,99643.63
2019-01-09T12:57:15.117Z,99648.29
2019-01-09T12:59:45.546Z,99650.81
2019-01-09T13:02:16.033Z,99658.48
2019-01-09T13:04:46.755Z,99650.44
2019-01-09T13:07:17.192Z,99662.32
2019-01-09T13:09:47.656Z,99664.59
2019-01-09T13:12:18.388Z,99670.48
2019-01-09T13:14:48.859Z,99667.97
2019-01-09T13:17:21.596Z,99667.59
2019-01-09T13:19:52.034Z,99668.30
2019-01-09T13:22:22.495Z,99679.84
2019-01-09T13:24:53.519Z,99676.34
2019-01-09T13:27:24.010Z,99671.43
2019-01-09T13:29:54.440Z,99679.09
2019-01-09T13:32:25.163Z,99684.59
2019-01-09T13:34:55.619Z,99687.60
2019-01-09T13:37:26.060Z,99686.28
2019-01-09T13:39:56.674Z,99693.83
2019-01-09T13:42:27.105Z,99689.28
2019-01-09T13:44:57.582Z,99693.83
2019-01-09T13:47:28.011Z,99691.56
2019-01-09T13:49:58.440Z,99698.03
2019-01-09T13:52:29.870Z,99702.80
2019-01-09T13:55:00.361Z,99710.73
2019-01-09T13:57:31.195Z,99713.50
2019-01-09T14:00:01.706Z,99719.98
2019-01-09T14:02:32.146Z,99719.52
2019-01-09T14:05:03.772Z,99730.54
2019-01-09T14:07:34.399Z,99730.89
2019-01-09T14:10:05.575Z,99733.79
2019-01-09T14:12:36.026Z,99737.13
2019-01-09T14:15:07.796Z,99745.91
2019-01-09T14:17:38.265Z,99749.49
2019-01-09T14:20:11.215Z,99751.64
2019-01-09T14:22:41.686Z,99754.89
2019-01-09T14:25:12.673Z,99760.74
2019-01-09T14:27:43.110Z,99767.34
2019-01-09T14:30:17.077Z,99772.97
2019-01-09T14:32:47.523Z,99783.98
2019-01-09T14:35:17.966Z,99790.81
2019-01-09T14:37:48.449Z,99784.89
2019-01-09T14:40:18.926Z,99792.86
2019-01-09T14:42:49.364Z,99791.77
2019-01-09T14:45:19.973Z,99796.04
2019-01-09T14:47:50.404Z,99794.69
2019-01-09T14:50:23.122Z,99797.44
2019-01-09T14:52:53.553Z,99800.34
2019-01-09T14:55:24.014Z,99811.13
2019-01-09T14:57:54.483Z,99813.50
2019-01-09T15:00:28.826Z,99816.44
2019-01-09T15:02:59.311Z,99818.36
2019-01-09T15:05:29.757Z,99824.89
2019-01-09T15:08:00.187Z,99829.48
2019-01-09T15:10:31.802Z,99837.47
2019-01-09T15:13:02.427Z,99844.62
2019-01-09T15:15:32.930Z,99833.86
2019-01-09T15:18:03.363Z,99837.28
2019-01-09T15:20:33.806Z,99836.83
2019-01-09T15:23:04.262Z,99839.73
2019-01-09T15:25:34.706Z,99839.09
2019-01-09T15:28:05.201Z,99840.56
2019-01-09T15:30:35.645Z,99839.92
2019-01-09T15:33:06.385Z,99849.90
2019-01-09T15:35:36.876Z,99848.02
2019-01-09T15:38:07.300Z,99856.08
2019-01-09T15:40:37.787Z,99854.95
2019-01-09T15:43:08.526Z,99862.41
2019-01-09T15:45:38.964Z,99860.98
2019-01-09T15:48:09.721Z,99860.98
2019-01-09T15:50:40.147Z,99860.34
2019-01-09T15:53:10.632Z,99860.98
2019-01-09T15:55:41.386Z,99865.72
2019-01-09T15:58:12.107Z,99863.05
2019-01-09T16:00:45.244Z,99870.62
2019-01-09T16:03:15.820Z,99869.79
2019-01-09T16:05:46.304Z,99878.53
2019-01-09T16:08:16.740Z,99883.88
2019-01-09T16:10:47.273Z,99885.91
2019-01-09T16:13:17.744Z,99889.14
2019-01-09T16:15:48.176Z,99895.31
2019-01-09T16:18:18.820Z,99890.11
2019-01-09T16:20:49.535Z,99897.84
2019-01-09T16:23:20.086Z,99903.56
2019-01-09T16:25:50.554Z,99903.67
2019-01-09T16:28:21.012Z,99903.41
2019-01-09T16:31:13.774Z,99904.19
2019-01-09T16:33:44.227Z,99916.64
2019-01-09T16:36:14.664Z,99916.91
2019-01-09T16:38:45.260Z,99915.33
2019-01-09T16:41:15.735Z,99920.38
2019-01-09T16:43:46.216Z,99915.78
2019-01-09T16:46:17.284Z,99919.95
2019-01-09T16:48:47.772Z,99918.23
2019-01-09T16:51:18.505Z,99920.27
2019-01-09T16:53:49.554Z,99932.41
2019-01-09T16:56:20.075Z,99929.85
2019-01-09T16:58:50.891Z,99936.98
2019-01-09T17:01:21.320Z,99935.90
2019-01-09T17:03:52.377Z,99944.70
2019-01-09T17:06:23.554Z,99949.03
2019-01-09T17:08:54.024Z,99950.89
2019-01-09T17:11:24.756Z,99955.84
2019-01-09T17:13:55.191Z,99958.47
2019-01-09T17:16:25.955Z,99956.41
2019-01-09T17:18:56.394Z,99958.53
2019-01-09T17:21:27.142Z,99954.79
2019-01-09T17:23:57.583Z,99964.29
2019-01-09T17:26:28.092Z,99966.33
2019-01-09T17:28:59.124Z,99972.20
2019-01-09T17:31:29.570Z,99970.66
2019-01-09T17:34:00.335Z,99976.61
2019-01-09T17:36:30.788Z,99979.84
2019-01-09T17:39:01.584Z,99979.08
2019-01-09T17:41:33.484Z,99986.88
2019-01-09T17:44:04.023Z,99989.84
2019-01-09T17:46:34.570Z,99994.84
2019-01-09T17:49:05.988Z,99995.89
2019-01-09T17:51:36.476Z,100007.92
2019-01-09T17:54:06.993Z,100007.64
2019-01-09T17:56:37.469Z,100008.41
2019-01-09T17:59:07.936Z,100010.49
2019-01-09T18:01:38.391Z,100022.19
2019-01-09T18:04:09.320Z,100021.42
2019-01-09T18:06:39.780Z,100025.77
2019-01-09T18:09:10.824Z,100033.67
2019-01-09T18:11:41.610Z,100035.27
2019-01-09T18:14:12.176Z,100035.82
2019-01-09T18:16:42.758Z,100041.58
2019-01-09T18:19:13.209Z,100046.95
2019-01-09T18:21:43.649Z,100056.28
2019-01-09T18:24:14.111Z,100054.59
2019-01-09T18:26:44.568Z,100048.38
2019-01-09T18:29:15.368Z,100060.23
2019-01-09T18:32:14.459Z,100059.37
2019-01-09T18:35:16.046Z,100059.37
2019-01-09T18:38:20.355Z,100071.85
2019-01-09T18:41:30.705Z,100075.25
2019-01-09T18:44:27.826Z,100076.73
2019-01-09T18:47:11.862Z,100084.26
2019-01-09T18:50:41.264Z,100083.88
2019-01-09T18:53:33.804Z,100089.91
2019-01-09T18:56:04.291Z,100091.86
2019-01-09T18:58:34.825Z,100098.17
2019-01-09T19:01:07.815Z,100097.90
2019-01-09T19:03:39.692Z,100104.48
2019-01-09T19:06:11.925Z,100103.83
2019-01-09T19:08:42.479Z,100102.23
2019-01-09T19:11:12.950Z,100109.31
2019-01-09T19:13:43.384Z,100113.16
2019-01-09T19:16:13.970Z,100110.59
2019-01-09T19:18:46.220Z,100121.90
2019-01-09T19:21:16.969Z,100129.05
2019-01-09T19:23:47.757Z,100128.77
2019-01-09T19:26:18.485Z,100125.16
2019-01-09T19:28:48.959Z,100128.28
2019-01-09T19:31:19.518Z,100130.37
2019-01-09T19:33:50.090Z,100129.71
2019-01-09T19:36:20.548Z,100126.45
2019-01-09T19:38:51.041Z,100130.41
2019-01-09T19:41:21.493Z,100137.00
2019-01-09T19:43:52.397Z,100143.17
2019-01-09T19:46:22.848Z,100151.29
2019-01-09T19:48:53.305Z,100143.28
2019-01-09T19:51:24.061Z,100148.06
2019-01-09T19:53:54.501Z,100157.78
2019-01-09T19:56:25.301Z,100156.73
2019-01-09T19:58:56.060Z,100157.88
2019-01-09T20:01:26.933Z,100163.51
2019-01-09T20:03:57.395Z,100166.52
2019-01-09T20:06:27.867Z,100169.72
2019-01-09T20:08:58.333Z,100165.41
2019-01-09T20:11:28.801Z,100169.55
2019-01-09T20:13:59.340Z,100168.98
2019-01-09T20:16:29.938Z,100172.84
2019-01-09T20:19:00.379Z,100183.66
2019-01-09T20:21:31.091Z,100179.05
2019-01-09T20:24:02.759Z,100187.17
2019-01-09T20:26:35.432Z,100186.69
2019-01-09T20:29:06.031Z,100192.80
2019-01-09T20:31:36.478Z,100194.95
2019-01-09T20:34:07.089Z,100194.73
2019-01-09T20:36:37.626Z,100201.82
2019-01-09T20:39:09.762Z,100202.76
2019-01-09T20:41:40.484Z,100210.12
2019-01-09T20:44:10.931Z,100215.11
2019-01-09T20:46:41.409Z,100223.02
2019-01-09T20:49:12.553Z,100225.00
2019-01-09T20:51:43.108Z,100227.95
2019-01-09T20:54:13.744Z,100241.31
2019-01-09T20:56:44.225Z,100234.72
2019-01-09T20:59:14.750Z,100241.11
2019-01-09T21:01:45.279Z,100246.03
2019-01-09T21:04:15.929Z,100254.14
2019-01-09T21:06:47.125Z,100248.13
2019-01-09T21:09:20.260Z,100252.80
2019-01-09T21:11:51.049Z,100261.27
2019-01-09T21:14:21.510Z,100265.14
2019-01-09T21:16:52.611Z,100270.42
2019-01-09T21:19:24.833Z,100276.36
2019-01-09T21:21:55.275Z,100279.75
2019-01-09T21:24:25.748Z,100275.42
2019-01-09T21:26:56.485Z,100277.09
2019-01-09T21:29:27.344Z,100274.76
2019-01-09T21:31:58.058Z,100282.37
2019-01-09T21:34:29.154Z,100285.31
2019-01-09T21:36:59.615Z,100279.38
2019-01-09T21:39:30.066Z,100287.18
2019-01-09T21:42:00.825Z,100287.30
2019-01-09T21:44:31.291Z,100294.05
2019-01-09T21:47:01.800Z,100296.22
2019-01-09T21:49:32.255Z,100303.30
2019-01-09T21:52:03.709Z,100307.08
2019-01-09T21:54:34.443Z,100309.05
2019-01-09T21:57:04.955Z,100312.80
2019-01-09T21:59:35.431Z,100314.98
2019-01-09T22:02:05.974Z,100309.23
2019-01-09T22:04:36.769Z,100321.77
2019-01-09T22:07:07.521Z,100320.06
2019-01-09T22:09:37.992Z,100328.55
2019-01-09T22:12:08.548Z,100325.06
2019-01-09T22:14:39.312Z,100324.13
2019-01-09T22:17:09.896Z,100325.16
2019-01-09T22:19:40.350Z,100322.13
2019-01-09T22:22:11.086Z,100322.52
2019-01-09T22:24:41.706Z,100326.67
2019-01-09T22:27:12.442Z,100332.02
2019-01-09T22:29:43.191Z,100338.61
2019-01-09T22:32:13.807Z,100343.72
2019-01-09T22:34:44.291Z,100348.52
2019-01-09T22:37:14.743Z,100357.27
2019-01-09T22:39:45.234Z,100350.58
2019-01-09T22:42:16.006Z,100350.96
2019-01-09T22:44:46.451Z,100346.99
2019-01-09T22:47:16.920Z,100354.54
2019-01-09T22:49:47.375Z,100354.63
2019-01-09T22:52:18.158Z,100358.69
2019-01-09T22:54:48.619Z,100360.84
2019-01-09T22:57:19.086Z,100360.66
2019-01-09T22:59:49.914Z,100367.83
2019-01-09T23:02:20.912Z,100370.27
2019-01-09T23:04:51.702Z,100369.91
2019-01-09T23:07:22.145Z,100373.02
2019-01-09T23:09:52.710Z,100364.52
2019-01-09T23:12:23.422Z,100379.05
2019-01-09T23:14:54.211Z,100372.62
2019-01-09T23:17:24.793Z,100375.45
2019-01-09T23:19:55.243Z,100378.86
2019-01-09T23:22:25.743Z,100388.26
2019-01-09T23:24:56.177Z,100385.34
2019-01-09T23:27:26.616Z,100390.13
2019-01-09T23:29:57.093Z,100388.84
2019-01-09T23:32:27.628Z,100394.28
2019-01-09T23:34:58.121Z,100394.56
2019-01-09T23:37:28.886Z,100395.72
2019-01-09T23:39:59.929Z,100393.37
2019-01-09T23:42:30.858Z,100392.41
2019-01-09T23:45:01.712Z,100394.11
2019-01-09T23:47:32.205Z,100391.48
2019-01-09T23:50:02.817Z,100397.02
2019-01-09T23:52:33.268Z,100395.42
2019-01-09T23:55:04.974Z,100398.06
2019-01-09T23:57:35.426Z,100396.63
